sensor_id;sensor_type;location;lat;lon;timestamp;P1;durP1;ratioP1;P2;durP2;ratioP2
35312;SDS011;21425;50.454;30.466;2022-09-23T00:00:59;16.05;;;8.80;;
35312;SDS011;21425;50.454;30.466;2022-09-23T00:03:26;17.27;;;10.05;;
35312;SDS011;21425;50.454;30.466;2022-09-23T00:05:56;16.90;;;8.10;;
35312;SDS011;21425;50.454;30.466;2022-09-23T00:08:23;15.88;;;7.80;;
35312;SDS011;21425;50.454;30.466;2022-09-23T00:10:48;14.55;;;8.38;;
35312;SDS011;21425;50.454;30.466;2022-09-23T00:13:14;14.80;;;8.73;;
35312;SDS011;21425;50.454;30.466;2022-09-23T00:15:40;15.45;;;9.27;;
35312;SDS011;21425;50.454;30.466;2022-09-23T00:18:06;15.95;;;9.05;;
35312;SDS011;21425;50.454;30.466;2022-09-23T00:20:32;18.33;;;8.75;;
35312;SDS011;21425;50.454;30.466;2022-09-23T00:22:59;15.70;;;8.13;;
35312;SDS011;21425;50.454;30.466;2022-09-23T00:25:25;22.85;;;8.55;;
35312;SDS011;21425;50.454;30.466;2022-09-23T00:27:53;12.20;;;7.38;;
35312;SDS011;21425;50.454;30.466;2022-09-23T00:30:19;17.25;;;8.88;;
35312;SDS011;21425;50.454;30.466;2022-09-23T00:32:47;15.02;;;8.80;;
35312;SDS011;21425;50.454;30.466;2022-09-23T00:35:13;15.13;;;9.20;;
35312;SDS011;21425;50.454;30.466;2022-09-23T00:37:38;16.67;;;9.30;;
35312;SDS011;21425;50.454;30.466;2022-09-23T00:40:04;16.38;;;9.75;;
35312;SDS011;21425;50.454;30.466;2022-09-23T00:42:31;20.00;;;10.18;;
35312;SDS011;21425;50.454;30.466;2022-09-23T00:44:58;16.42;;;9.38;;
35312;SDS011;21425;50.454;30.466;2022-09-23T00:47:43;18.20;;;9.55;;
35312;SDS011;21425;50.454;30.466;2022-09-23T00:50:37;15.02;;;8.85;;
35312;SDS011;21425;50.454;30.466;2022-09-23T00:53:06;19.58;;;10.18;;
35312;SDS011;21425;50.454;30.466;2022-09-23T00:56:08;18.30;;;9.35;;
35312;SDS011;21425;50.454;30.466;2022-09-23T00:58:29;17.60;;;9.00;;
35312;SDS011;21425;50.454;30.466;2022-09-23T01:00:58;17.85;;;9.55;;
35312;SDS011;21425;50.454;30.466;2022-09-23T01:03:25;17.95;;;9.00;;
35312;SDS011;21425;50.454;30.466;2022-09-23T01:05:51;17.10;;;8.82;;
35312;SDS011;21425;50.454;30.466;2022-09-23T01:08:17;15.38;;;9.27;;
35312;SDS011;21425;50.454;30.466;2022-09-23T01:13:19;19.02;;;11.13;;
35312;SDS011;21425;50.454;30.466;2022-09-23T01:16:04;20.13;;;11.00;;
35312;SDS011;21425;50.454;30.466;2022-09-23T01:18:47;22.10;;;9.93;;
35312;SDS011;21425;50.454;30.466;2022-09-23T01:24:14;17.70;;;9.68;;
35312;SDS011;21425;50.454;30.466;2022-09-23T01:32:34;18.95;;;9.23;;
35312;SDS011;21425;50.454;30.466;2022-09-23T01:43:24;16.77;;;8.57;;
35312;SDS011;21425;50.454;30.466;2022-09-23T01:45:56;17.23;;;9.23;;
35312;SDS011;21425;50.454;30.466;2022-09-23T01:48:31;17.73;;;9.48;;
35312;SDS011;21425;50.454;30.466;2022-09-23T01:51:19;17.73;;;10.18;;
35312;SDS011;21425;50.454;30.466;2022-09-23T01:53:56;17.75;;;9.00;;
35312;SDS011;21425;50.454;30.466;2022-09-23T01:59:11;15.45;;;9.23;;
35312;SDS011;21425;50.454;30.466;2022-09-23T02:01:44;21.42;;;10.80;;
35312;SDS011;21425;50.454;30.466;2022-09-23T02:04:24;18.48;;;10.65;;
35312;SDS011;21425;50.454;30.466;2022-09-23T02:06:58;14.07;;;8.82;;
35312;SDS011;21425;50.454;30.466;2022-09-23T02:09:36;17.27;;;9.55;;
35312;SDS011;21425;50.454;30.466;2022-09-23T02:12:07;18.67;;;9.10;;
35312;SDS011;21425;50.454;30.466;2022-09-23T02:14:41;18.70;;;9.82;;
35312;SDS011;21425;50.454;30.466;2022-09-23T02:17:14;18.20;;;9.88;;
35312;SDS011;21425;50.454;30.466;2022-09-23T02:19:44;18.98;;;10.43;;
35312;SDS011;21425;50.454;30.466;2022-09-23T02:22:16;17.85;;;10.82;;
35312;SDS011;21425;50.454;30.466;2022-09-23T02:24:45;18.73;;;10.45;;
35312;SDS011;21425;50.454;30.466;2022-09-23T02:27:20;16.88;;;9.82;;
35312;SDS011;21425;50.454;30.466;2022-09-23T02:29:58;15.82;;;9.93;;
35312;SDS011;21425;50.454;30.466;2022-09-23T02:40:39;18.90;;;10.10;;
35312;SDS011;21425;50.454;30.466;2022-09-23T02:46:00;15.65;;;9.20;;
35312;SDS011;21425;50.454;30.466;2022-09-23T02:48:30;18.13;;;9.43;;
35312;SDS011;21425;50.454;30.466;2022-09-23T02:51:05;20.02;;;10.20;;
35312;SDS011;21425;50.454;30.466;2022-09-23T02:53:31;19.15;;;10.82;;
35312;SDS011;21425;50.454;30.466;2022-09-23T02:55:58;16.73;;;9.73;;
35312;SDS011;21425;50.454;30.466;2022-09-23T02:58:24;20.83;;;10.20;;
35312;SDS011;21425;50.454;30.466;2022-09-23T03:08:50;15.52;;;8.30;;
35312;SDS011;21425;50.454;30.466;2022-09-23T03:11:21;19.40;;;9.50;;
35312;SDS011;21425;50.454;30.466;2022-09-23T03:24:22;11.80;;;7.05;;
35312;SDS011;21425;50.454;30.466;2022-09-23T03:26:49;13.93;;;8.27;;
35312;SDS011;21425;50.454;30.466;2022-09-23T03:29:17;14.30;;;8.52;;
35312;SDS011;21425;50.454;30.466;2022-09-23T03:31:45;13.95;;;7.63;;
35312;SDS011;21425;50.454;30.466;2022-09-23T03:34:19;13.95;;;7.85;;
35312;SDS011;21425;50.454;30.466;2022-09-23T03:36:50;11.63;;;7.03;;
35312;SDS011;21425;50.454;30.466;2022-09-23T03:42:00;12.52;;;7.25;;
35312;SDS011;21425;50.454;30.466;2022-09-23T03:44:33;13.00;;;7.00;;
35312;SDS011;21425;50.454;30.466;2022-09-23T03:47:03;13.88;;;7.18;;
35312;SDS011;21425;50.454;30.466;2022-09-23T03:49:31;16.02;;;8.85;;
35312;SDS011;21425;50.454;30.466;2022-09-23T03:54:29;15.55;;;8.65;;
35312;SDS011;21425;50.454;30.466;2022-09-23T03:56:55;12.98;;;7.80;;
35312;SDS011;21425;50.454;30.466;2022-09-23T03:59:22;13.70;;;7.90;;
35312;SDS011;21425;50.454;30.466;2022-09-23T04:01:48;13.73;;;8.02;;
35312;SDS011;21425;50.454;30.466;2022-09-23T04:04:14;13.40;;;8.52;;
35312;SDS011;21425;50.454;30.466;2022-09-23T04:06:40;16.98;;;9.05;;
35312;SDS011;21425;50.454;30.466;2022-09-23T04:09:06;15.43;;;8.13;;
35312;SDS011;21425;50.454;30.466;2022-09-23T04:11:32;17.02;;;8.75;;
35312;SDS011;21425;50.454;30.466;2022-09-23T04:13:58;10.35;;;5.97;;
35312;SDS011;21425;50.454;30.466;2022-09-23T04:16:24;11.20;;;6.72;;
35312;SDS011;21425;50.454;30.466;2022-09-23T04:18:49;13.95;;;7.25;;
35312;SDS011;21425;50.454;30.466;2022-09-23T04:21:15;12.93;;;8.15;;
35312;SDS011;21425;50.454;30.466;2022-09-23T04:23:41;12.88;;;7.68;;
35312;SDS011;21425;50.454;30.466;2022-09-23T04:26:07;16.98;;;7.55;;
35312;SDS011;21425;50.454;30.466;2022-09-23T04:28:33;10.75;;;6.40;;
35312;SDS011;21425;50.454;30.466;2022-09-23T04:31:02;13.13;;;7.75;;
35312;SDS011;21425;50.454;30.466;2022-09-23T04:33:28;14.50;;;8.07;;
35312;SDS011;21425;50.454;30.466;2022-09-23T04:35:54;11.48;;;7.13;;
35312;SDS011;21425;50.454;30.466;2022-09-23T04:38:20;14.82;;;7.43;;
35312;SDS011;21425;50.454;30.466;2022-09-23T04:40:46;14.93;;;7.57;;
35312;SDS011;21425;50.454;30.466;2022-09-23T04:43:12;11.95;;;7.43;;
35312;SDS011;21425;50.454;30.466;2022-09-23T04:45:40;14.40;;;7.85;;
35312;SDS011;21425;50.454;30.466;2022-09-23T04:48:06;16.92;;;8.90;;
35312;SDS011;21425;50.454;30.466;2022-09-23T04:50:33;12.27;;;8.15;;
35312;SDS011;21425;50.454;30.466;2022-09-23T04:52:59;13.02;;;7.75;;
35312;SDS011;21425;50.454;30.466;2022-09-23T04:55:25;13.15;;;7.70;;
35312;SDS011;21425;50.454;30.466;2022-09-23T04:57:51;13.80;;;7.70;;
35312;SDS011;21425;50.454;30.466;2022-09-23T05:00:17;16.88;;;8.73;;
35312;SDS011;21425;50.454;30.466;2022-09-23T05:02:44;13.60;;;7.55;;
35312;SDS011;21425;50.454;30.466;2022-09-23T05:05:11;14.65;;;7.53;;
35312;SDS011;21425;50.454;30.466;2022-09-23T05:07:37;12.15;;;7.32;;
35312;SDS011;21425;50.454;30.466;2022-09-23T05:10:03;14.60;;;7.25;;
35312;SDS011;21425;50.454;30.466;2022-09-23T05:12:30;10.35;;;6.20;;
35312;SDS011;21425;50.454;30.466;2022-09-23T05:14:55;11.95;;;7.20;;
35312;SDS011;21425;50.454;30.466;2022-09-23T05:17:21;8.93;;;6.47;;
35312;SDS011;21425;50.454;30.466;2022-09-23T05:19:48;12.55;;;7.38;;
35312;SDS011;21425;50.454;30.466;2022-09-23T05:22:13;7.93;;;5.50;;
35312;SDS011;21425;50.454;30.466;2022-09-23T05:24:39;12.05;;;6.68;;
35312;SDS011;21425;50.454;30.466;2022-09-23T05:27:05;6.95;;;4.88;;
35312;SDS011;21425;50.454;30.466;2022-09-23T05:29:32;12.18;;;6.53;;
35312;SDS011;21425;50.454;30.466;2022-09-23T05:31:58;7.78;;;5.78;;
35312;SDS011;21425;50.454;30.466;2022-09-23T05:34:25;9.32;;;5.90;;
35312;SDS011;21425;50.454;30.466;2022-09-23T05:36:51;9.70;;;7.25;;
35312;SDS011;21425;50.454;30.466;2022-09-23T05:39:17;9.70;;;6.15;;
35312;SDS011;21425;50.454;30.466;2022-09-23T05:41:43;7.78;;;5.18;;
35312;SDS011;21425;50.454;30.466;2022-09-23T05:44:09;9.55;;;6.40;;
35312;SDS011;21425;50.454;30.466;2022-09-23T05:46:35;7.18;;;5.05;;
35312;SDS011;21425;50.454;30.466;2022-09-23T05:49:01;10.75;;;5.68;;
35312;SDS011;21425;50.454;30.466;2022-09-23T05:51:28;11.65;;;5.68;;
35312;SDS011;21425;50.454;30.466;2022-09-23T05:53:54;9.80;;;5.82;;
35312;SDS011;21425;50.454;30.466;2022-09-23T05:56:23;7.90;;;5.35;;
35312;SDS011;21425;50.454;30.466;2022-09-23T05:58:50;9.30;;;5.00;;
35312;SDS011;21425;50.454;30.466;2022-09-23T06:01:18;9.77;;;5.85;;
35312;SDS011;21425;50.454;30.466;2022-09-23T06:03:46;7.80;;;5.25;;
35312;SDS011;21425;50.454;30.466;2022-09-23T06:06:13;8.23;;;5.57;;
35312;SDS011;21425;50.454;30.466;2022-09-23T06:08:40;12.50;;;6.00;;
35312;SDS011;21425;50.454;30.466;2022-09-23T06:11:06;8.20;;;5.28;;
35312;SDS011;21425;50.454;30.466;2022-09-23T06:13:36;10.90;;;5.18;;
35312;SDS011;21425;50.454;30.466;2022-09-23T06:16:06;8.95;;;5.90;;
35312;SDS011;21425;50.454;30.466;2022-09-23T06:18:34;8.00;;;5.63;;
35312;SDS011;21425;50.454;30.466;2022-09-23T06:21:02;10.05;;;5.68;;
35312;SDS011;21425;50.454;30.466;2022-09-23T06:23:29;7.18;;;4.63;;
35312;SDS011;21425;50.454;30.466;2022-09-23T06:26:04;8.30;;;5.47;;
35312;SDS011;21425;50.454;30.466;2022-09-23T06:28:32;9.38;;;5.47;;
35312;SDS011;21425;50.454;30.466;2022-09-23T06:31:01;13.80;;;6.55;;
35312;SDS011;21425;50.454;30.466;2022-09-23T06:33:28;11.90;;;6.20;;
35312;SDS011;21425;50.454;30.466;2022-09-23T06:35:58;12.73;;;6.90;;
35312;SDS011;21425;50.454;30.466;2022-09-23T06:38:25;12.07;;;7.68;;
35312;SDS011;21425;50.454;30.466;2022-09-23T06:40:52;13.05;;;6.72;;
35312;SDS011;21425;50.454;30.466;2022-09-23T06:43:19;10.13;;;5.63;;
35312;SDS011;21425;50.454;30.466;2022-09-23T06:45:51;9.82;;;6.28;;
35312;SDS011;21425;50.454;30.466;2022-09-23T06:48:17;12.45;;;6.47;;
35312;SDS011;21425;50.454;30.466;2022-09-23T06:50:44;12.13;;;6.85;;
35312;SDS011;21425;50.454;30.466;2022-09-23T06:53:10;14.05;;;7.43;;
35312;SDS011;21425;50.454;30.466;2022-09-23T06:55:36;11.15;;;6.13;;
35312;SDS011;21425;50.454;30.466;2022-09-23T06:58:02;10.52;;;6.22;;
35312;SDS011;21425;50.454;30.466;2022-09-23T07:00:28;8.60;;;6.18;;
35312;SDS011;21425;50.454;30.466;2022-09-23T07:02:53;8.63;;;5.38;;
35312;SDS011;21425;50.454;30.466;2022-09-23T07:05:19;10.25;;;5.72;;
35312;SDS011;21425;50.454;30.466;2022-09-23T07:07:46;9.13;;;5.63;;
35312;SDS011;21425;50.454;30.466;2022-09-23T07:10:12;8.77;;;5.80;;
35312;SDS011;21425;50.454;30.466;2022-09-23T07:12:38;8.77;;;5.57;;
35312;SDS011;21425;50.454;30.466;2022-09-23T07:15:05;8.40;;;5.38;;
35312;SDS011;21425;50.454;30.466;2022-09-23T07:17:31;8.32;;;5.68;;
35312;SDS011;21425;50.454;30.466;2022-09-23T07:19:59;9.93;;;6.28;;
35312;SDS011;21425;50.454;30.466;2022-09-23T07:22:25;9.55;;;4.82;;
35312;SDS011;21425;50.454;30.466;2022-09-23T07:24:51;9.23;;;5.55;;
35312;SDS011;21425;50.454;30.466;2022-09-23T07:27:23;11.15;;;6.20;;
35312;SDS011;21425;50.454;30.466;2022-09-23T07:29:50;10.10;;;6.60;;
35312;SDS011;21425;50.454;30.466;2022-09-23T07:32:16;10.35;;;5.10;;
35312;SDS011;21425;50.454;30.466;2022-09-23T07:34:42;6.70;;;3.80;;
35312;SDS011;21425;50.454;30.466;2022-09-23T07:37:08;9.00;;;3.97;;
35312;SDS011;21425;50.454;30.466;2022-09-23T07:39:34;11.00;;;6.38;;
35312;SDS011;21425;50.454;30.466;2022-09-23T07:42:01;9.95;;;5.63;;
35312;SDS011;21425;50.454;30.466;2022-09-23T07:44:29;10.40;;;5.82;;
35312;SDS011;21425;50.454;30.466;2022-09-23T07:46:56;11.25;;;6.25;;
35312;SDS011;21425;50.454;30.466;2022-09-23T07:49:22;12.77;;;6.28;;
35312;SDS011;21425;50.454;30.466;2022-09-23T07:51:48;12.25;;;6.45;;
35312;SDS011;21425;50.454;30.466;2022-09-23T07:54:14;9.35;;;5.18;;
35312;SDS011;21425;50.454;30.466;2022-09-23T07:56:41;9.05;;;4.95;;
35312;SDS011;21425;50.454;30.466;2022-09-23T07:59:08;11.32;;;6.25;;
35312;SDS011;21425;50.454;30.466;2022-09-23T08:01:42;10.68;;;6.53;;
35312;SDS011;21425;50.454;30.466;2022-09-23T08:04:16;13.68;;;6.57;;
35312;SDS011;21425;50.454;30.466;2022-09-23T08:06:48;11.77;;;6.63;;
35312;SDS011;21425;50.454;30.466;2022-09-23T08:09:26;7.63;;;5.03;;
35312;SDS011;21425;50.454;30.466;2022-09-23T08:11:54;4.97;;;3.15;;
35312;SDS011;21425;50.454;30.466;2022-09-23T08:14:20;8.05;;;3.25;;
35312;SDS011;21425;50.454;30.466;2022-09-23T08:16:46;7.07;;;3.83;;
35312;SDS011;21425;50.454;30.466;2022-09-23T08:19:13;6.07;;;4.13;;
35312;SDS011;21425;50.454;30.466;2022-09-23T08:21:39;5.10;;;3.15;;
35312;SDS011;21425;50.454;30.466;2022-09-23T08:24:06;5.75;;;3.67;;
35312;SDS011;21425;50.454;30.466;2022-09-23T08:26:35;4.90;;;3.20;;
35312;SDS011;21425;50.454;30.466;2022-09-23T08:29:02;6.15;;;4.10;;
35312;SDS011;21425;50.454;30.466;2022-09-23T08:31:28;11.00;;;5.30;;
35312;SDS011;21425;50.454;30.466;2022-09-23T08:33:54;9.35;;;5.28;;
35312;SDS011;21425;50.454;30.466;2022-09-23T08:36:21;11.70;;;6.70;;
35312;SDS011;21425;50.454;30.466;2022-09-23T08:38:48;10.07;;;6.35;;
35312;SDS011;21425;50.454;30.466;2022-09-23T08:43:58;3.92;;;2.38;;
35312;SDS011;21425;50.454;30.466;2022-09-23T08:46:32;4.60;;;2.95;;
35312;SDS011;21425;50.454;30.466;2022-09-23T08:49:02;4.82;;;3.03;;
35312;SDS011;21425;50.454;30.466;2022-09-23T08:51:32;4.40;;;2.67;;
35312;SDS011;21425;50.454;30.466;2022-09-23T08:56:30;4.85;;;2.58;;
35312;SDS011;21425;50.454;30.466;2022-09-23T09:02:11;5.78;;;3.78;;
35312;SDS011;21425;50.454;30.466;2022-09-23T09:04:43;9.82;;;4.05;;
35312;SDS011;21425;50.454;30.466;2022-09-23T09:07:14;6.00;;;3.83;;
35312;SDS011;21425;50.454;30.466;2022-09-23T09:09:46;6.35;;;3.92;;
35312;SDS011;21425;50.454;30.466;2022-09-23T09:12:17;5.70;;;3.70;;
35312;SDS011;21425;50.454;30.466;2022-09-23T09:20:20;6.28;;;4.00;;
35312;SDS011;21425;50.454;30.466;2022-09-23T09:22:55;5.28;;;3.13;;
35312;SDS011;21425;50.454;30.466;2022-09-23T09:27:58;8.10;;;4.45;;
35312;SDS011;21425;50.454;30.466;2022-09-23T09:30:25;6.43;;;3.83;;
35312;SDS011;21425;50.454;30.466;2022-09-23T09:32:59;7.45;;;4.07;;
35312;SDS011;21425;50.454;30.466;2022-09-23T09:38:02;8.23;;;4.18;;
35312;SDS011;21425;50.454;30.466;2022-09-23T09:40:30;7.00;;;4.13;;
35312;SDS011;21425;50.454;30.466;2022-09-23T09:42:58;6.50;;;3.63;;
35312;SDS011;21425;50.454;30.466;2022-09-23T09:45:45;6.13;;;4.00;;
35312;SDS011;21425;50.454;30.466;2022-09-23T09:48:19;6.32;;;3.38;;
35312;SDS011;21425;50.454;30.466;2022-09-23T09:50:51;6.83;;;4.20;;
35312;SDS011;21425;50.454;30.466;2022-09-23T09:56:14;5.78;;;3.55;;
35312;SDS011;21425;50.454;30.466;2022-09-23T09:58:54;6.80;;;3.67;;
35312;SDS011;21425;50.454;30.466;2022-09-23T10:01:25;6.55;;;4.15;;
35312;SDS011;21425;50.454;30.466;2022-09-23T10:04:00;5.40;;;3.60;;
35312;SDS011;21425;50.454;30.466;2022-09-23T10:06:34;4.25;;;3.17;;
35312;SDS011;21425;50.454;30.466;2022-09-23T10:11:26;5.65;;;3.42;;
35312;SDS011;21425;50.454;30.466;2022-09-23T10:16:24;4.38;;;3.17;;
35312;SDS011;21425;50.454;30.466;2022-09-23T10:18:51;5.97;;;3.53;;
35312;SDS011;21425;50.454;30.466;2022-09-23T10:21:21;5.50;;;2.38;;
35312;SDS011;21425;50.454;30.466;2022-09-23T10:23:55;3.65;;;2.47;;
35312;SDS011;21425;50.454;30.466;2022-09-23T10:26:33;4.82;;;3.13;;
35312;SDS011;21425;50.454;30.466;2022-09-23T10:29:03;4.93;;;2.92;;
35312;SDS011;21425;50.454;30.466;2022-09-23T10:31:50;3.58;;;2.55;;
35312;SDS011;21425;50.454;30.466;2022-09-23T10:46:14;3.30;;;1.90;;
35312;SDS011;21425;50.454;30.466;2022-09-23T11:05:32;3.53;;;1.80;;
35312;SDS011;21425;50.454;30.466;2022-09-23T11:08:20;3.58;;;2.05;;
35312;SDS011;21425;50.454;30.466;2022-09-23T11:11:02;2.40;;;1.70;;
35312;SDS011;21425;50.454;30.466;2022-09-23T11:30:30;3.13;;;2.10;;
35312;SDS011;21425;50.454;30.466;2022-09-23T11:36:25;2.53;;;1.35;;
35312;SDS011;21425;50.454;30.466;2022-09-23T11:38:58;1.70;;;1.03;;
35312;SDS011;21425;50.454;30.466;2022-09-23T11:41:31;4.25;;;1.67;;
35312;SDS011;21425;50.454;30.466;2022-09-23T11:44:02;1.52;;;1.10;;
35312;SDS011;21425;50.454;30.466;2022-09-23T11:49:37;2.78;;;1.27;;
35312;SDS011;21425;50.454;30.466;2022-09-23T11:52:14;3.42;;;1.08;;
35312;SDS011;21425;50.454;30.466;2022-09-23T11:54:50;1.52;;;1.02;;
35312;SDS011;21425;50.454;30.466;2022-09-23T11:57:26;1.15;;;0.85;;
35312;SDS011;21425;50.454;30.466;2022-09-23T12:00:11;1.77;;;0.90;;
35312;SDS011;21425;50.454;30.466;2022-09-23T12:05:19;2.10;;;1.10;;
35312;SDS011;21425;50.454;30.466;2022-09-23T12:07:51;0.98;;;0.77;;
35312;SDS011;21425;50.454;30.466;2022-09-23T12:11:17;1.48;;;0.95;;
35312;SDS011;21425;50.454;30.466;2022-09-23T12:22:25;2.58;;;1.20;;
35312;SDS011;21425;50.454;30.466;2022-09-23T12:27:51;3.08;;;1.60;;
35312;SDS011;21425;50.454;30.466;2022-09-23T12:32:47;1.55;;;1.17;;
35312;SDS011;21425;50.454;30.466;2022-09-23T12:35:29;1.67;;;1.20;;
35312;SDS011;21425;50.454;30.466;2022-09-23T12:38:01;1.67;;;0.93;;
35312;SDS011;21425;50.454;30.466;2022-09-23T12:40:43;2.17;;;1.20;;
35312;SDS011;21425;50.454;30.466;2022-09-23T12:43:16;2.03;;;1.20;;
35312;SDS011;21425;50.454;30.466;2022-09-23T12:46:24;1.60;;;1.27;;
35312;SDS011;21425;50.454;30.466;2022-09-23T12:51:22;2.63;;;1.40;;
35312;SDS011;21425;50.454;30.466;2022-09-23T12:56:22;3.30;;;1.67;;
35312;SDS011;21425;50.454;30.466;2022-09-23T12:59:16;2.13;;;1.40;;
35312;SDS011;21425;50.454;30.466;2022-09-23T13:01:48;4.15;;;1.50;;
35312;SDS011;21425;50.454;30.466;2022-09-23T13:04:33;2.38;;;1.40;;
35312;SDS011;21425;50.454;30.466;2022-09-23T13:07:28;3.95;;;2.13;;
35312;SDS011;21425;50.454;30.466;2022-09-23T13:12:41;5.47;;;3.28;;
35312;SDS011;21425;50.454;30.466;2022-09-23T13:15:16;4.20;;;2.55;;
35312;SDS011;21425;50.454;30.466;2022-09-23T13:17:46;3.72;;;2.50;;
35312;SDS011;21425;50.454;30.466;2022-09-23T13:25:18;2.40;;;1.65;;
35312;SDS011;21425;50.454;30.466;2022-09-23T13:27:57;2.67;;;1.58;;
35312;SDS011;21425;50.454;30.466;2022-09-23T13:30:26;2.80;;;1.67;;
35312;SDS011;21425;50.454;30.466;2022-09-23T13:32:59;2.42;;;1.40;;
35312;SDS011;21425;50.454;30.466;2022-09-23T13:35:34;4.43;;;1.83;;
35312;SDS011;21425;50.454;30.466;2022-09-23T13:38:24;3.17;;;1.70;;
35312;SDS011;21425;50.454;30.466;2022-09-23T13:40:59;3.40;;;1.90;;
35312;SDS011;21425;50.454;30.466;2022-09-23T13:43:52;3.47;;;1.90;;
35312;SDS011;21425;50.454;30.466;2022-09-23T13:46:27;3.15;;;2.05;;
35312;SDS011;21425;50.454;30.466;2022-09-23T13:48:55;3.75;;;2.10;;
35312;SDS011;21425;50.454;30.466;2022-09-23T13:51:28;3.83;;;2.13;;
35312;SDS011;21425;50.454;30.466;2022-09-23T13:53:57;5.10;;;2.63;;
35312;SDS011;21425;50.454;30.466;2022-09-23T13:56:28;4.28;;;2.80;;
35312;SDS011;21425;50.454;30.466;2022-09-23T13:59:19;6.97;;;3.22;;
35312;SDS011;21425;50.454;30.466;2022-09-23T14:04:38;5.28;;;2.97;;
35312;SDS011;21425;50.454;30.466;2022-09-23T14:07:05;6.30;;;3.70;;
35312;SDS011;21425;50.454;30.466;2022-09-23T14:09:33;11.10;;;6.95;;
35312;SDS011;21425;50.454;30.466;2022-09-23T14:12:01;5.15;;;3.15;;
35312;SDS011;21425;50.454;30.466;2022-09-23T14:14:29;6.40;;;3.22;;
35312;SDS011;21425;50.454;30.466;2022-09-23T14:16:58;5.28;;;2.75;;
35312;SDS011;21425;50.454;30.466;2022-09-23T14:19:24;5.10;;;2.22;;
35312;SDS011;21425;50.454;30.466;2022-09-23T14:21:51;4.15;;;2.28;;
35312;SDS011;21425;50.454;30.466;2022-09-23T14:24:31;4.47;;;3.45;;
35312;SDS011;21425;50.454;30.466;2022-09-23T14:29:31;3.35;;;2.42;;
35312;SDS011;21425;50.454;30.466;2022-09-23T14:32:05;4.43;;;2.50;;
35312;SDS011;21425;50.454;30.466;2022-09-23T14:37:31;5.22;;;2.45;;
35312;SDS011;21425;50.454;30.466;2022-09-23T14:42:43;8.13;;;2.90;;
35312;SDS011;21425;50.454;30.466;2022-09-23T14:45:13;7.28;;;3.33;;
35312;SDS011;21425;50.454;30.466;2022-09-23T14:47:42;6.43;;;3.40;;
35312;SDS011;21425;50.454;30.466;2022-09-23T14:50:15;5.18;;;3.28;;
35312;SDS011;21425;50.454;30.466;2022-09-23T14:55:54;5.93;;;3.15;;
35312;SDS011;21425;50.454;30.466;2022-09-23T15:03:57;4.88;;;2.75;;
35312;SDS011;21425;50.454;30.466;2022-09-23T15:06:25;3.90;;;2.22;;
35312;SDS011;21425;50.454;30.466;2022-09-23T15:08:51;4.32;;;2.83;;
35312;SDS011;21425;50.454;30.466;2022-09-23T15:11:22;3.85;;;2.55;;
35312;SDS011;21425;50.454;30.466;2022-09-23T15:13:49;5.13;;;2.53;;
35312;SDS011;21425;50.454;30.466;2022-09-23T15:16:22;6.85;;;3.70;;
35312;SDS011;21425;50.454;30.466;2022-09-23T15:18:54;4.70;;;2.67;;
35312;SDS011;21425;50.454;30.466;2022-09-23T15:21:21;4.85;;;2.53;;
35312;SDS011;21425;50.454;30.466;2022-09-23T15:23:52;5.43;;;3.13;;
35312;SDS011;21425;50.454;30.466;2022-09-23T15:26:20;4.05;;;2.40;;
35312;SDS011;21425;50.454;30.466;2022-09-23T15:29:06;3.53;;;2.20;;
35312;SDS011;21425;50.454;30.466;2022-09-23T15:31:33;3.13;;;2.10;;
35312;SDS011;21425;50.454;30.466;2022-09-23T15:34:01;4.30;;;2.30;;
35312;SDS011;21425;50.454;30.466;2022-09-23T15:36:28;4.20;;;2.20;;
35312;SDS011;21425;50.454;30.466;2022-09-23T15:38:54;4.10;;;2.42;;
35312;SDS011;21425;50.454;30.466;2022-09-23T15:41:25;7.03;;;2.80;;
35312;SDS011;21425;50.454;30.466;2022-09-23T15:43:50;5.50;;;2.67;;
35312;SDS011;21425;50.454;30.466;2022-09-23T15:46:20;4.80;;;3.00;;
35312;SDS011;21425;50.454;30.466;2022-09-23T15:51:29;5.72;;;3.45;;
35312;SDS011;21425;50.454;30.466;2022-09-23T15:53:56;4.90;;;3.13;;
35312;SDS011;21425;50.454;30.466;2022-09-23T15:56:24;4.85;;;3.00;;
35312;SDS011;21425;50.454;30.466;2022-09-23T15:58:53;5.88;;;3.28;;
35312;SDS011;21425;50.454;30.466;2022-09-23T16:03:44;4.55;;;3.05;;
35312;SDS011;21425;50.454;30.466;2022-09-23T16:06:10;8.20;;;3.28;;
35312;SDS011;21425;50.454;30.466;2022-09-23T16:08:37;5.47;;;3.42;;
35312;SDS011;21425;50.454;30.466;2022-09-23T16:11:03;7.32;;;3.72;;
35312;SDS011;21425;50.454;30.466;2022-09-23T16:13:30;5.45;;;3.20;;
35312;SDS011;21425;50.454;30.466;2022-09-23T16:15:55;5.95;;;3.50;;
35312;SDS011;21425;50.454;30.466;2022-09-23T16:18:21;5.30;;;3.58;;
35312;SDS011;21425;50.454;30.466;2022-09-23T16:20:47;7.82;;;4.53;;
35312;SDS011;21425;50.454;30.466;2022-09-23T16:25:42;9.73;;;5.15;;
35312;SDS011;21425;50.454;30.466;2022-09-23T16:28:08;7.63;;;4.82;;
35312;SDS011;21425;50.454;30.466;2022-09-23T16:30:34;6.45;;;4.63;;
35312;SDS011;21425;50.454;30.466;2022-09-23T16:33:00;8.43;;;4.18;;
35312;SDS011;21425;50.454;30.466;2022-09-23T16:35:27;8.10;;;4.60;;
35312;SDS011;21425;50.454;30.466;2022-09-23T16:37:56;8.68;;;5.00;;
35312;SDS011;21425;50.454;30.466;2022-09-23T16:40:22;9.48;;;4.43;;
35312;SDS011;21425;50.454;30.466;2022-09-23T16:42:49;8.57;;;4.90;;
35312;SDS011;21425;50.454;30.466;2022-09-23T16:45:17;13.68;;;4.85;;
35312;SDS011;21425;50.454;30.466;2022-09-23T16:47:47;10.43;;;5.05;;
35312;SDS011;21425;50.454;30.466;2022-09-23T16:50:16;9.68;;;5.28;;
35312;SDS011;21425;50.454;30.466;2022-09-23T16:52:44;10.52;;;5.28;;
35312;SDS011;21425;50.454;30.466;2022-09-23T16:55:10;11.43;;;5.40;;
35312;SDS011;21425;50.454;30.466;2022-09-23T16:57:37;11.80;;;5.95;;
35312;SDS011;21425;50.454;30.466;2022-09-23T17:00:05;8.73;;;5.53;;
35312;SDS011;21425;50.454;30.466;2022-09-23T17:02:52;13.60;;;6.72;;
35312;SDS011;21425;50.454;30.466;2022-09-23T17:05:36;11.30;;;6.82;;
35312;SDS011;21425;50.454;30.466;2022-09-23T17:08:02;12.38;;;7.00;;
35312;SDS011;21425;50.454;30.466;2022-09-23T17:10:28;8.95;;;5.85;;
35312;SDS011;21425;50.454;30.466;2022-09-23T17:12:55;12.35;;;6.68;;
35312;SDS011;21425;50.454;30.466;2022-09-23T17:15:21;12.07;;;6.85;;
35312;SDS011;21425;50.454;30.466;2022-09-23T17:17:47;13.05;;;6.90;;
35312;SDS011;21425;50.454;30.466;2022-09-23T17:20:13;11.93;;;6.82;;
35312;SDS011;21425;50.454;30.466;2022-09-23T17:22:39;11.82;;;7.07;;
35312;SDS011;21425;50.454;30.466;2022-09-23T17:25:06;13.13;;;7.60;;
35312;SDS011;21425;50.454;30.466;2022-09-23T17:27:32;14.98;;;7.60;;
35312;SDS011;21425;50.454;30.466;2022-09-23T17:29:58;13.00;;;7.53;;
35312;SDS011;21425;50.454;30.466;2022-09-23T17:32:24;16.58;;;8.32;;
35312;SDS011;21425;50.454;30.466;2022-09-23T17:34:50;13.65;;;7.95;;
35312;SDS011;21425;50.454;30.466;2022-09-23T17:37:16;15.27;;;7.80;;
35312;SDS011;21425;50.454;30.466;2022-09-23T17:39:41;12.50;;;7.22;;
35312;SDS011;21425;50.454;30.466;2022-09-23T17:42:07;12.23;;;7.57;;
35312;SDS011;21425;50.454;30.466;2022-09-23T17:44:34;13.40;;;7.82;;
35312;SDS011;21425;50.454;30.466;2022-09-23T17:47:00;17.17;;;7.82;;
35312;SDS011;21425;50.454;30.466;2022-09-23T17:49:27;13.80;;;8.05;;
35312;SDS011;21425;50.454;30.466;2022-09-23T17:51:59;12.57;;;8.07;;
35312;SDS011;21425;50.454;30.466;2022-09-23T17:54:28;10.93;;;7.30;;
35312;SDS011;21425;50.454;30.466;2022-09-23T17:56:56;9.70;;;5.97;;